Time;durP1;ratioP1;P1;durP2;ratioP2;P2;SDS_P1;SDS_P2;PMS_P1;PMS_P2;Temp;Humidity;BMP_temperature;BMP_pressure;BME280_temperature;BME280_humidity;BME280_pressure;Samples;Min_cycle;Max_cycle;Signal;HPM_P1;HPM_P2
2023/09/21 00:01:02;;;;;;;6.80;1.95;;;;;;;-141.50;100.00;63355.56;5037698;28;20095;-82
2023/09/21 00:03:34;;;;;;;4.30;2.10;;;;;;;-141.50;100.00;63355.56;5036445;28;20037;-81
2023/09/21 00:06:03;;;;;;;3.90;1.85;;;;;;;-141.50;100.00;63355.56;5037870;28;20500;-81
2023/09/21 00:08:31;;;;;;;3.63;1.90;;;;;;;-141.50;100.00;63355.56;5037260;28;20194;-82
2023/09/21 00:10:58;;;;;;;5.80;2.00;;;;;;;-141.50;100.00;63355.56;5033419;28;20061;-82
2023/09/21 00:13:28;;;;;;;5.43;1.90;;;;;;;-141.50;100.00;63355.56;5042517;28;20223;-82
2023/09/21 00:16:02;;;;;;;3.08;1.90;;;;;;;-141.50;100.00;63355.56;5038968;28;20053;-81
2023/09/21 00:18:29;;;;;;;3.30;2.00;;;;;;;-141.50;100.00;63355.56;5036544;28;20117;-81
2023/09/21 00:21:00;;;;;;;4.10;1.83;;;;;;;-141.50;100.00;63355.56;5034333;28;20049;-81
2023/09/21 00:23:27;;;;;;;3.15;1.83;;;;;;;-141.50;100.00;63355.56;5058361;28;20045;-80
2023/09/21 00:26:00;;;;;;;2.65;1.50;;;;;;;-141.50;100.00;63355.56;5046202;28;20045;-81
2023/09/21 00:28:28;;;;;;;4.60;1.92;;;;;;;-141.50;100.00;63355.56;5044719;28;20049;-79
2023/09/21 00:30:59;;;;;;;4.28;1.98;;;;;;;-141.50;100.00;63355.56;5040627;28;20147;-81
2023/09/21 00:33:33;;;;;;;3.13;1.80;;;;;;;-141.50;100.00;63355.56;5063470;28;20117;-81
2023/09/21 00:36:11;;;;;;;5.07;1.95;;;;;;;-141.50;100.00;63355.56;5039824;28;20036;-80
2023/09/21 00:38:41;;;;;;;4.25;2.10;;;;;;;-141.50;100.00;63355.56;5036875;28;20559;-81
2023/09/21 00:41:11;;;;;;;5.75;1.80;;;;;;;-141.50;100.00;63355.56;5023049;28;20076;-81
2023/09/21 00:43:39;;;;;;;4.38;2.05;;;;;;;-141.50;100.00;63355.56;5021079;28;20419;-81
2023/09/21 00:46:06;;;;;;;3.25;1.92;;;;;;;-141.50;100.00;63355.56;5035278;28;20105;-81
2023/09/21 00:48:38;;;;;;;3.80;1.55;;;;;;;-141.50;100.00;63355.56;5033210;28;20114;-80
2023/09/21 00:51:09;;;;;;;3.13;1.73;;;;;;;-141.50;100.00;63355.56;5033147;28;20431;-82
2023/09/21 00:53:39;;;;;;;3.20;1.55;;;;;;;-141.50;100.00;63355.56;5032576;28;20410;-82
2023/09/21 00:56:11;;;;;;;3.42;1.65;;;;;;;-141.50;100.00;63355.56;5032384;28;20053;-79
2023/09/21 00:58:45;;;;;;;5.22;1.77;;;;;;;-141.50;100.00;63355.56;5032929;28;20041;-79
2023/09/21 01:01:23;;;;;;;5.40;2.00;;;;;;;-141.50;100.00;63355.56;5047972;28;20045;-79
2023/09/21 01:03:53;;;;;;;2.90;1.40;;;;;;;-141.50;100.00;63355.56;5021163;28;20492;-81
2023/09/21 01:06:21;;;;;;;2.35;1.50;;;;;;;-141.50;100.00;63355.56;5046391;28;20053;-79
2023/09/21 01:08:49;;;;;;;2.60;1.50;;;;;;;-141.50;100.00;63355.56;5031793;28;20578;-79
2023/09/21 01:11:16;;;;;;;2.95;1.85;;;;;;;-141.50;100.00;63355.56;5033123;28;20056;-82
2023/09/21 01:13:47;;;;;;;2.85;1.50;;;;;;;-141.50;100.00;63355.56;5025976;28;20053;-80
2023/09/21 01:16:15;;;;;;;4.95;1.83;;;;;;;-141.50;100.00;63355.56;5033956;28;20462;-80
2023/09/21 01:18:43;;;;;;;3.90;1.67;;;;;;;-141.50;100.00;63355.56;5033098;28;20052;-82
2023/09/21 01:21:13;;;;;;;3.70;1.67;;;;;;;-141.50;100.00;63355.56;5032111;28;20073;-82
2023/09/21 01:23:45;;;;;;;3.17;1.70;;;;;;;-141.50;100.00;63355.56;5035357;28;20076;-81
2023/09/21 01:26:16;;;;;;;3.00;1.73;;;;;;;-141.50;100.00;63355.56;5034609;28;20800;-81
2023/09/21 01:28:46;;;;;;;3.42;1.60;;;;;;;-141.50;100.00;63355.56;5008696;28;20074;-81
2023/09/21 01:31:16;;;;;;;4.18;1.80;;;;;;;-141.50;100.00;63355.56;5034323;28;20527;-81
2023/09/21 01:33:43;;;;;;;3.10;1.55;;;;;;;-141.50;100.00;63355.56;5041220;28;20037;-81
2023/09/21 01:36:12;;;;;;;4.68;1.95;;;;;;;-141.50;100.00;63355.56;5031056;28;21471;-80
2023/09/21 01:38:44;;;;;;;3.30;1.60;;;;;;;-141.50;100.00;63355.56;5028931;28;20069;-81
2023/09/21 01:41:18;;;;;;;2.70;1.60;;;;;;;-141.50;100.00;63355.56;5013987;28;20205;-80
2023/09/21 01:43:45;;;;;;;4.35;1.75;;;;;;;-141.50;100.00;63355.56;5036451;28;20335;-80
2023/09/21 01:46:18;;;;;;;3.88;1.80;;;;;;;-141.50;100.00;63355.56;5032456;28;20049;-78
2023/09/21 01:48:46;;;;;;;4.25;1.75;;;;;;;-141.50;100.00;63355.56;5024756;28;20097;-79
2023/09/21 01:51:13;;;;;;;3.45;1.63;;;;;;;-141.50;100.00;63355.56;5029825;28;20072;-78
2023/09/21 01:53:41;;;;;;;3.28;1.27;;;;;;;-141.50;100.00;63355.56;5029630;28;20077;-80
2023/09/21 01:56:08;;;;;;;2.40;1.52;;;;;;;-141.50;100.00;63355.56;5029784;28;20045;-79
2023/09/21 01:58:35;;;;;;;2.75;1.48;;;;;;;-141.50;100.00;63355.56;5031707;28;20052;-80
2023/09/21 02:01:03;;;;;;;1.80;1.35;;;;;;;-141.50;100.00;63355.56;5033015;28;20045;-81
2023/09/21 02:03:31;;;;;;;3.13;1.70;;;;;;;-141.50;100.00;63355.56;5016467;28;20060;-81
2023/09/21 02:06:02;;;;;;;3.47;1.75;;;;;;;-141.50;100.00;63355.56;5033420;28;20056;-82
2023/09/21 02:08:31;;;;;;;2.42;1.55;;;;;;;-141.50;100.00;63355.56;5033373;28;20045;-83
2023/09/21 02:10:59;;;;;;;2.00;1.33;;;;;;;-141.50;100.00;63355.56;5017742;28;20091;-82
2023/09/21 02:13:26;;;;;;;3.50;1.60;;;;;;;-141.50;100.00;63355.56;5015813;28;20113;-82
2023/09/21 02:15:53;;;;;;;2.88;1.60;;;;;;;-141.50;100.00;63355.56;5027312;28;20068;-82
2023/09/21 02:18:21;;;;;;;3.00;1.63;;;;;;;-141.50;100.00;63355.56;5033009;28;20632;-82
2023/09/21 02:20:54;;;;;;;3.30;1.77;;;;;;;-141.50;100.00;63355.56;5032937;28;20506;-81
2023/09/21 02:23:26;;;;;;;3.10;1.60;;;;;;;-141.50;100.00;63355.56;5031691;28;20469;-81
2023/09/21 02:25:53;;;;;;;4.30;1.65;;;;;;;-141.50;100.00;63355.56;5033924;28;20053;-80
2023/09/21 02:28:22;;;;;;;3.25;1.58;;;;;;;-141.50;100.00;63355.56;5035642;28;20045;-79
2023/09/21 02:30:51;;;;;;;4.90;1.70;;;;;;;-141.50;100.00;63355.56;5027247;28;20140;-79
2023/09/21 02:33:18;;;;;;;4.72;1.73;;;;;;;-141.50;100.00;63355.56;5027198;28;20057;-80
2023/09/21 02:35:47;;;;;;;2.90;1.63;;;;;;;-141.50;100.00;63355.56;5013608;28;20191;-80
2023/09/21 02:38:21;;;;;;;2.90;1.40;;;;;;;-141.50;100.00;63355.56;5029078;28;20041;-80
2023/09/21 02:40:48;;;;;;;3.17;1.40;;;;;;;-141.50;100.00;63355.56;5030086;28;20847;-80
2023/09/21 02:43:16;;;;;;;2.75;1.42;;;;;;;-141.50;100.00;63355.56;5013525;28;20046;-81
2023/09/21 02:45:44;;;;;;;3.10;1.90;;;;;;;-141.50;100.00;63355.56;5023859;28;20052;-80
2023/09/21 02:48:14;;;;;;;3.45;1.75;;;;;;;-141.50;100.00;63355.56;5027734;28;20052;-81
2023/09/21 02:50:44;;;;;;;2.80;1.60;;;;;;;-141.50;100.00;63355.56;5029576;28;20136;-81
2023/09/21 02:53:12;;;;;;;3.35;1.60;;;;;;;-141.50;100.00;63355.56;5023686;28;20050;-80
2023/09/21 02:55:42;;;;;;;2.95;1.83;;;;;;;-141.50;100.00;63355.56;5031014;28;20037;-81
2023/09/21 02:58:11;;;;;;;3.42;1.83;;;;;;;-141.50;100.00;63355.56;5030503;28;20046;-80
2023/09/21 03:00:46;;;;;;;2.90;1.60;;;;;;;-141.50;100.00;63355.56;5032682;28;20045;-80
2023/09/21 03:03:15;;;;;;;2.75;1.45;;;;;;;-141.50;100.00;63355.56;5030956;28;25471;-79
2023/09/21 03:05:47;;;;;;;2.90;1.50;;;;;;;-141.50;100.00;63355.56;5027127;28;20042;-79
2023/09/21 03:08:17;;;;;;;5.53;1.58;;;;;;;-141.50;100.00;63355.56;5025486;28;20053;-80
2023/09/21 03:10:49;;;;;;;2.35;1.30;;;;;;;-141.50;100.00;63355.56;5023738;28;20373;-79
2023/09/21 03:13:18;;;;;;;3.38;1.50;;;;;;;-141.50;100.00;63355.56;5031666;28;20419;-81
2023/09/21 03:15:51;;;;;;;10.15;1.90;;;;;;;-141.50;100.00;63355.56;5047614;28;20042;-81
2023/09/21 03:18:19;;;;;;;2.72;1.60;;;;;;;-141.50;100.00;63355.56;5030995;28;20472;-78
2023/09/21 03:20:48;;;;;;;3.50;1.65;;;;;;;-141.50;100.00;63355.56;5023110;28;20045;-80
2023/09/21 03:23:15;;;;;;;3.85;1.50;;;;;;;-141.50;100.00;63355.56;5027216;28;20050;-80
2023/09/21 03:25:53;;;;;;;5.68;1.63;;;;;;;-141.50;100.00;63355.56;5045915;28;20068;-80
2023/09/21 03:28:24;;;;;;;2.55;1.50;;;;;;;-141.50;100.00;63355.56;5031940;28;21947;-82
2023/09/21 03:30:54;;;;;;;3.25;1.40;;;;;;;-141.50;100.00;63355.56;5015835;28;20045;-82
2023/09/21 03:33:22;;;;;;;5.43;1.40;;;;;;;-141.50;100.00;63355.56;5016759;28;20105;-82
2023/09/21 03:35:49;;;;;;;2.78;1.42;;;;;;;-141.50;100.00;63355.56;5018137;28;20049;-82
2023/09/21 03:38:19;;;;;;;2.28;1.40;;;;;;;-141.50;100.00;63355.56;5032197;28;22919;-81
2023/09/21 03:40:48;;;;;;;3.40;1.55;;;;;;;-141.50;100.00;63355.56;5018144;28;20214;-80
2023/09/21 03:43:18;;;;;;;4.38;1.55;;;;;;;-141.50;100.00;63355.56;5034298;28;20045;-81
2023/09/21 03:45:45;;;;;;;4.57;1.58;;;;;;;-141.50;100.00;63355.56;5034089;28;20045;-80
2023/09/21 03:48:12;;;;;;;2.53;1.50;;;;;;;-141.50;100.00;63355.56;5034846;28;20049;-82
2023/09/21 03:50:41;;;;;;;3.88;1.50;;;;;;;-141.50;100.00;63355.56;5034300;28;20396;-79
2023/09/21 03:53:10;;;;;;;2.80;1.48;;;;;;;-141.50;100.00;63355.56;5034311;28;20053;-81
2023/09/21 03:55:39;;;;;;;4.88;1.73;;;;;;;-141.50;100.00;63355.56;5033277;28;22138;-80
2023/09/21 03:58:07;;;;;;;2.20;1.35;;;;;;;-141.50;100.00;63355.56;5035689;28;20053;-80
2023/09/21 04:03:08;;;;;;;4.07;1.38;;;;;;;-141.50;100.00;63355.56;5034055;28;20045;-79
2023/09/21 04:06:06;;;;;;;2.20;1.45;;;;;;;-141.50;100.00;63355.56;5030001;28;20068;-78
2023/09/21 04:08:33;;;;;;;4.70;1.80;;;;;;;-141.50;100.00;63355.56;5011523;28;20067;-78
2023/09/21 04:11:00;;;;;;;4.43;2.25;;;;;;;-141.50;100.00;63355.56;5029499;28;20052;-79
2023/09/21 04:13:27;;;;;;;3.05;1.75;;;;;;;-141.50;100.00;63355.56;5031929;28;20037;-79
2023/09/21 04:15:54;;;;;;;2.65;1.55;;;;;;;-141.50;100.00;63355.56;5029032;28;20038;-79
2023/09/21 04:18:20;;;;;;;4.13;1.67;;;;;;;-141.50;100.00;63355.56;5027527;28;20049;-80
2023/09/21 04:20:52;;;;;;;3.28;1.83;;;;;;;-141.50;100.00;63355.56;5033166;28;20041;-78
2023/09/21 04:23:39;;;;;;;2.35;1.48;;;;;;;-141.50;100.00;63355.56;5037958;28;20780;-78
2023/09/21 04:26:05;;;;;;;3.22;1.70;;;;;;;-141.50;100.00;63355.56;5047153;28;20041;-80
2023/09/21 04:28:32;;;;;;;3.33;1.63;;;;;;;-141.50;100.00;63355.56;5049542;28;20053;-82
2023/09/21 04:31:02;;;;;;;2.85;1.63;;;;;;;-141.50;100.00;63355.56;5051073;28;20068;-80
2023/09/21 04:33:29;;;;;;;3.25;1.80;;;;;;;-141.50;100.00;63355.56;5057747;28;20040;-81
2023/09/21 04:35:56;;;;;;;7.90;1.92;;;;;;;-141.50;100.00;63355.56;5052355;28;20029;-80
2023/09/21 04:38:23;;;;;;;2.92;1.60;;;;;;;-141.50;100.00;63355.56;5046962;28;20152;-80
2023/09/21 04:40:52;;;;;;;5.15;2.08;;;;;;;-141.50;100.00;63355.56;5046082;28;20046;-80
2023/09/21 04:43:20;;;;;;;5.47;1.80;;;;;;;-141.50;100.00;63355.56;5061030;28;20052;-81
2023/09/21 04:45:48;;;;;;;5.88;2.20;;;;;;;-141.50;100.00;63355.56;5043572;28;20041;-83
2023/09/21 04:48:15;;;;;;;3.50;1.70;;;;;;;-141.50;100.00;63355.56;5015364;28;20140;-83
2023/09/21 04:50:46;;;;;;;4.18;1.70;;;;;;;-141.50;100.00;63355.56;5030588;28;20480;-83
2023/09/21 04:53:13;;;;;;;7.15;2.40;;;;;;;-141.50;100.00;63355.56;5031795;28;20049;-82
2023/09/21 04:55:40;;;;;;;5.95;2.42;;;;;;;-141.50;100.00;63355.56;5015000;28;20511;-80
2023/09/21 04:58:07;;;;;;;5.28;2.47;;;;;;;-141.50;100.00;63355.56;5031464;28;20152;-82
2023/09/21 05:00:36;;;;;;;5.32;2.22;;;;;;;-141.50;100.00;63355.56;5029941;28;20050;-82
2023/09/21 05:03:05;;;;;;;5.22;2.40;;;;;;;-141.50;100.00;63355.56;5029805;28;20052;-79
2023/09/21 05:05:32;;;;;;;4.80;2.22;;;;;;;-141.50;100.00;63355.56;5029433;28;20072;-79
2023/09/21 05:07:59;;;;;;;6.25;2.30;;;;;;;-141.50;100.00;63355.56;5024930;28;20554;-79
2023/09/21 05:10:26;;;;;;;6.22;2.40;;;;;;;-141.50;100.00;63355.56;5027028;28;20053;-79
2023/09/21 05:12:57;;;;;;;5.63;2.30;;;;;;;-141.50;100.00;63355.56;5029934;28;20042;-78
2023/09/21 05:15:24;;;;;;;4.18;2.13;;;;;;;-141.50;100.00;63355.56;5027677;28;20408;-79
2023/09/21 05:17:51;;;;;;;4.30;2.10;;;;;;;-141.50;100.00;63355.56;5029111;28;20049;-78
2023/09/21 05:20:18;;;;;;;5.55;2.20;;;;;;;-141.50;100.00;63355.56;5012239;28;20041;-79
2023/09/21 05:22:44;;;;;;;6.18;2.17;;;;;;;-141.50;100.00;63355.56;5022485;28;20049;-78
2023/09/21 05:25:11;;;;;;;4.35;1.88;;;;;;;-141.50;100.00;63355.56;5028574;28;20128;-79
2023/09/21 05:27:38;;;;;;;4.68;1.95;;;;;;;-141.50;100.00;63355.56;5028498;28;20058;-77
2023/09/21 05:30:09;;;;;;;5.05;2.47;;;;;;;-141.50;100.00;63355.56;5048252;28;21550;-79
2023/09/21 05:32:37;;;;;;;4.35;1.85;;;;;;;-141.50;100.00;63355.56;5039539;28;21300;-79
2023/09/21 05:35:06;;;;;;;3.85;1.77;;;;;;;-141.50;100.00;63355.56;5030312;28;20713;-80
2023/09/21 05:37:37;;;;;;;5.63;2.33;;;;;;;-141.50;100.00;63355.56;5029289;28;20041;-79
2023/09/21 05:40:11;;;;;;;3.08;1.92;;;;;;;-141.50;100.00;63355.56;5030081;28;20045;-78
2023/09/21 05:42:39;;;;;;;4.82;1.77;;;;;;;-141.50;100.00;63355.56;5029730;28;21361;-78
2023/09/21 05:45:06;;;;;;;3.83;1.52;;;;;;;-141.50;100.00;63355.56;5024869;28;20515;-80
2023/09/21 05:47:33;;;;;;;5.47;2.05;;;;;;;-141.50;100.00;63355.56;5026789;28;20400;-80
2023/09/21 05:50:00;;;;;;;4.32;1.70;;;;;;;-141.50;100.00;63355.56;5024028;28;24983;-80
2023/09/21 05:52:29;;;;;;;4.95;2.05;;;;;;;-141.50;100.00;63355.56;5041799;28;20050;-79
2023/09/21 05:54:57;;;;;;;3.85;1.88;;;;;;;-141.50;100.00;63355.56;5024131;28;20053;-80
2023/09/21 05:57:23;;;;;;;4.57;2.00;;;;;;;-141.50;100.00;63355.56;5017502;28;20475;-79
2023/09/21 05:59:51;;;;;;;4.90;2.10;;;;;;;-141.50;100.00;63355.56;5029463;28;20045;-80
2023/09/21 06:02:18;;;;;;;5.18;2.10;;;;;;;-141.50;100.00;63355.56;5026845;28;20117;-82
2023/09/21 06:04:46;;;;;;;4.78;2.08;;;;;;;-141.50;100.00;63355.56;5030387;28;20592;-81
2023/09/21 06:07:14;;;;;;;5.68;2.05;;;;;;;-141.50;100.00;63355.56;5031336;28;20053;-82
2023/09/21 06:09:43;;;;;;;5.15;2.20;;;;;;;-141.50;100.00;63355.56;5029005;28;20049;-80
2023/09/21 06:12:11;;;;;;;4.00;1.75;;;;;;;-141.50;100.00;63355.56;5028128;28;20507;-79
2023/09/21 06:14:38;;;;;;;4.00;2.30;;;;;;;-141.50;100.00;63355.56;5025736;28;20330;-79
2023/09/21 06:17:06;;;;;;;5.75;2.53;;;;;;;-141.50;100.00;63355.56;5023029;28;20050;-80
2023/09/21 06:19:33;;;;;;;5.25;2.38;;;;;;;-141.50;100.00;63355.56;5025856;28;20048;-79
2023/09/21 06:22:00;;;;;;;4.25;2.20;;;;;;;-141.50;100.00;63355.56;5026709;28;20041;-80
2023/09/21 06:24:27;;;;;;;4.65;1.95;;;;;;;-141.50;100.00;63355.56;5026901;28;20053;-79
2023/09/21 06:26:54;;;;;;;4.50;1.90;;;;;;;-141.50;100.00;63355.56;5027040;28;20057;-80
2023/09/21 06:29:22;;;;;;;3.85;2.05;;;;;;;-141.50;100.00;63355.56;5028509;28;20046;-80
2023/09/21 06:31:54;;;;;;;5.25;2.25;;;;;;;-141.50;100.00;63355.56;5028863;28;20052;-81
2023/09/21 06:34:41;;;;;;;2.55;1.60;;;;;;;-141.50;100.00;63355.56;5027107;28;20041;-81
2023/09/21 06:37:09;;;;;;;4.38;1.90;;;;;;;-141.50;100.00;63355.56;5028476;28;20045;-79
2023/09/21 06:39:36;;;;;;;5.75;1.52;;;;;;;-141.50;100.00;63355.56;5024442;28;20057;-76
2023/09/21 06:42:03;;;;;;;3.17;1.90;;;;;;;-141.50;100.00;63355.56;5023010;28;20096;-79
2023/09/21 06:44:31;;;;;;;5.65;1.48;;;;;;;-141.50;100.00;63355.56;5027029;28;20053;-80
2023/09/21 06:46:58;;;;;;;3.38;1.55;;;;;;;-141.50;100.00;63355.56;5026082;28;20073;-78
2023/09/21 06:49:26;;;;;;;4.85;2.00;;;;;;;-141.50;100.00;63355.56;5026489;28;20044;-79
2023/09/21 06:51:54;;;;;;;6.25;1.60;;;;;;;-141.50;100.00;63355.56;5026449;28;20538;-79
2023/09/21 06:54:23;;;;;;;2.88;1.42;;;;;;;-141.50;100.00;63355.56;5026546;28;20651;-78
2023/09/21 06:56:50;;;;;;;5.63;1.77;;;;;;;-141.50;100.00;63355.56;5026334;28;20459;-79
2023/09/21 06:59:17;;;;;;;4.43;1.60;;;;;;;-141.50;100.00;63355.56;5028862;28;20037;-79
2023/09/21 07:01:43;;;;;;;4.40;1.92;;;;;;;-141.50;100.00;63355.56;5027676;28;20614;-79
2023/09/21 07:04:11;;;;;;;3.03;1.50;;;;;;;-141.50;100.00;63355.56;5026873;28;20045;-80
2023/09/21 07:06:39;;;;;;;3.00;1.70;;;;;;;-141.50;100.00;63355.56;5025148;28;20048;-79
2023/09/21 07:09:06;;;;;;;6.70;1.60;;;;;;;-141.50;100.00;63355.56;5025480;28;20056;-78
2023/09/21 07:11:33;;;;;;;2.72;1.50;;;;;;;-141.50;100.00;63355.56;5026632;28;20053;-79
2023/09/21 07:14:00;;;;;;;3.55;1.67;;;;;;;-141.50;100.00;63355.56;5026471;28;20048;-79
2023/09/21 07:16:27;;;;;;;4.20;1.58;;;;;;;-141.50;100.00;63355.56;5026232;28;20048;-80
2023/09/21 07:18:54;;;;;;;3.75;1.63;;;;;;;-141.50;100.00;63355.56;5029970;28;20068;-80
2023/09/21 07:21:21;;;;;;;4.10;1.70;;;;;;;-141.50;100.00;63355.56;5028593;28;20049;-80
2023/09/21 07:23:48;;;;;;;2.78;1.42;;;;;;;-141.50;100.00;63355.56;5023573;28;20045;-79
2023/09/21 07:26:15;;;;;;;3.85;1.70;;;;;;;-141.50;100.00;63355.56;5030058;28;20535;-79
2023/09/21 07:28:42;;;;;;;6.53;1.80;;;;;;;-141.50;100.00;63355.56;5031440;28;20133;-80
2023/09/21 07:31:10;;;;;;;4.03;1.55;;;;;;;-141.50;100.00;63355.56;5028435;28;20041;-81
2023/09/21 07:33:37;;;;;;;4.22;1.52;;;;;;;-141.50;100.00;63355.56;5030306;28;20041;-79
2023/09/21 07:36:04;;;;;;;3.53;1.67;;;;;;;-141.50;100.00;63355.56;5009030;28;20424;-80
2023/09/21 07:38:31;;;;;;;2.92;1.77;;;;;;;-141.50;100.00;63355.56;5045115;28;20504;-81
2023/09/21 07:40:58;;;;;;;5.70;2.00;;;;;;;-141.50;100.00;63355.56;5029673;28;20046;-79
2023/09/21 07:43:25;;;;;;;3.70;1.75;;;;;;;-141.50;100.00;63355.56;5029659;28;20053;-79
2023/09/21 07:45:53;;;;;;;3.15;1.70;;;;;;;-141.50;100.00;63355.56;5025445;28;20069;-79
2023/09/21 07:48:22;;;;;;;4.93;2.03;;;;;;;-141.50;100.00;63355.56;5030334;28;21916;-79
2023/09/21 07:50:50;;;;;;;3.58;1.50;;;;;;;-141.50;100.00;63355.56;5010227;28;20041;-79
2023/09/21 07:53:19;;;;;;;7.22;1.52;;;;;;;-141.50;100.00;63355.56;5027504;28;20046;-79
2023/09/21 07:55:45;;;;;;;2.72;1.33;;;;;;;-141.50;100.00;63355.56;5030960;28;20120;-79
2023/09/21 07:58:12;;;;;;;4.93;1.67;;;;;;;-141.50;100.00;63355.56;5031127;28;20045;-79
2023/09/21 08:00:39;;;;;;;3.75;1.60;;;;;;;-141.50;100.00;63355.56;5026093;28;20037;-78
2023/09/21 08:03:06;;;;;;;3.42;1.85;;;;;;;-141.50;100.00;63355.56;5026795;28;20046;-78
2023/09/21 08:05:34;;;;;;;3.25;1.52;;;;;;;-141.50;100.00;63355.56;5025211;28;20080;-78
2023/09/21 08:08:01;;;;;;;4.93;1.60;;;;;;;-141.50;100.00;63355.56;5025789;28;20042;-79
2023/09/21 08:10:32;;;;;;;3.53;1.58;;;;;;;-141.50;100.00;63355.56;5026648;28;20042;-78
2023/09/21 08:12:58;;;;;;;5.03;1.50;;;;;;;-141.50;100.00;63355.56;5027614;28;20049;-78
2023/09/21 08:15:25;;;;;;;2.38;1.50;;;;;;;-141.50;100.00;63355.56;5026147;28;20045;-79
2023/09/21 08:17:53;;;;;;;2.75;1.52;;;;;;;-141.50;100.00;63355.56;5026924;28;20444;-80
2023/09/21 08:20:22;;;;;;;4.15;1.52;;;;;;;-141.50;100.00;63355.56;5029493;28;20049;-79
2023/09/21 08:22:49;;;;;;;3.58;1.75;;;;;;;-141.50;100.00;63355.56;5022367;28;20045;-79
2023/09/21 08:25:16;;;;;;;2.58;1.30;;;;;;;-141.50;100.00;63355.56;5031637;28;20045;-78
2023/09/21 08:27:43;;;;;;;2.90;1.30;;;;;;;-141.50;100.00;63355.56;5031503;28;20507;-78
2023/09/21 08:30:10;;;;;;;4.45;1.52;;;;;;;-141.50;100.00;63355.56;5029965;28;20046;-78
2023/09/21 08:32:41;;;;;;;3.13;1.70;;;;;;;-141.50;100.00;63355.56;5032498;28;20053;-78
2023/09/21 08:35:08;;;;;;;2.42;1.35;;;;;;;-141.50;100.00;63355.56;5035373;28;20041;-79
2023/09/21 08:37:36;;;;;;;3.63;1.90;;;;;;;-141.50;100.00;63355.56;5037044;28;20508;-79
2023/09/21 08:40:06;;;;;;;2.40;1.40;;;;;;;-141.50;100.00;63355.56;5040572;28;20101;-77
2023/09/21 08:42:36;;;;;;;2.45;1.38;;;;;;;-141.50;100.00;63355.56;5042634;28;20095;-77
2023/09/21 08:45:11;;;;;;;2.25;1.40;;;;;;;-141.50;100.00;63355.56;5041929;28;20052;-78
2023/09/21 08:47:39;;;;;;;2.40;1.35;;;;;;;-141.50;100.00;63355.56;5042390;28;20045;-77
2023/09/21 08:50:07;;;;;;;3.00;1.50;;;;;;;-141.50;100.00;63355.56;5041967;28;20614;-77
2023/09/21 08:52:35;;;;;;;5.30;1.55;;;;;;;-141.50;100.00;63355.56;5022052;28;20071;-77
2023/09/21 08:55:02;;;;;;;3.75;1.52;;;;;;;-141.50;100.00;63355.56;5038180;28;20048;-77
2023/09/21 08:57:30;;;;;;;3.67;1.60;;;;;;;-141.50;100.00;63355.56;5028192;28;20504;-77
2023/09/21 09:00:03;;;;;;;2.55;1.20;;;;;;;-141.50;100.00;63355.56;5005528;28;20455;-80
2023/09/21 09:02:31;;;;;;;2.70;1.38;;;;;;;-141.50;100.00;63355.56;5028094;28;20523;-78
2023/09/21 09:04:58;;;;;;;3.67;1.40;;;;;;;-141.50;100.00;63355.56;5045364;28;20091;-78
2023/09/21 09:07:25;;;;;;;3.30;1.45;;;;;;;-141.50;100.00;63355.56;5029438;28;20396;-80
2023/09/21 09:09:52;;;;;;;2.55;1.25;;;;;;;-141.50;100.00;63355.56;5025799;28;20042;-79
2023/09/21 09:12:23;;;;;;;3.20;1.38;;;;;;;-141.50;100.00;63355.56;5027136;28;20056;-80
2023/09/21 09:14:51;;;;;;;2.72;1.30;;;;;;;-141.50;100.00;63355.56;5029947;28;20046;-81
2023/09/21 09:17:18;;;;;;;2.08;1.20;;;;;;;-141.50;100.00;63355.56;5029927;28;20048;-78
2023/09/21 09:19:46;;;;;;;2.33;1.20;;;;;;;-141.50;100.00;63355.56;5029271;28;20434;-79
2023/09/21 09:22:14;;;;;;;2.83;1.65;;;;;;;-141.50;100.00;63355.56;5029401;28;20065;-80
2023/09/21 09:24:45;;;;;;;3.85;1.35;;;;;;;-141.50;100.00;63355.56;5012583;28;20407;-78
2023/09/21 09:27:11;;;;;;;3.10;1.55;;;;;;;-141.50;100.00;63355.56;5009524;28;20053;-80
2023/09/21 09:29:50;;;;;;;2.30;1.38;;;;;;;-141.50;100.00;63355.56;5027886;28;20045;-79
2023/09/21 09:32:21;;;;;;;4.60;1.50;;;;;;;-141.50;100.00;63355.56;5029424;28;20038;-78
2023/09/21 09:34:48;;;;;;;2.47;1.50;;;;;;;-141.50;100.00;63355.56;5021154;28;20048;-80
2023/09/21 09:37:16;;;;;;;2.53;1.52;;;;;;;-141.50;100.00;63355.56;5013625;28;20116;-78
2023/09/21 09:39:44;;;;;;;1.80;1.10;;;;;;;-141.50;100.00;63355.56;5029975;28;20539;-79
2023/09/21 09:42:13;;;;;;;2.38;1.10;;;;;;;-141.50;100.00;63355.56;5029199;28;20053;-79
2023/09/21 09:44:47;;;;;;;7.65;1.30;;;;;;;-141.50;100.00;63355.56;5027212;28;20034;-79
2023/09/21 09:47:18;;;;;;;2.92;1.35;;;;;;;-141.50;100.00;63355.56;5030267;28;20045;-78
2023/09/21 09:49:51;;;;;;;3.22;1.25;;;;;;;-141.50;100.00;63355.56;5031492;28;20033;-79
2023/09/21 09:52:20;;;;;;;2.90;1.42;;;;;;;-141.50;100.00;63355.56;5031599;28;20038;-81
2023/09/21 09:54:48;;;;;;;2.92;1.30;;;;;;;-141.50;100.00;63355.56;5031084;28;20071;-80
2023/09/21 09:57:16;;;;;;;2.95;1.33;;;;;;;-141.50;100.00;63355.56;5030724;28;20049;-80
2023/09/21 09:59:45;;;;;;;2.42;1.23;;;;;;;-141.50;100.00;63355.56;5031889;28;20419;-80
2023/09/21 10:02:17;;;;;;;2.50;1.58;;;;;;;-141.50;100.00;63355.56;5031048;28;20049;-80
2023/09/21 10:04:49;;;;;;;3.65;1.30;;;;;;;-141.50;100.00;63355.56;5033124;28;20045;-79
2023/09/21 10:07:18;;;;;;;2.58;1.17;;;;;;;-141.50;100.00;63355.56;5014084;28;20054;-79
2023/09/21 10:09:45;;;;;;;4.18;1.35;;;;;;;-141.50;100.00;63355.56;5031363;28;20045;-79
2023/09/21 10:12:17;;;;;;;3.30;1.27;;;;;;;-141.50;100.00;63355.56;5030653;28;20053;-78
2023/09/21 10:14:45;;;;;;;2.38;1.23;;;;;;;-141.50;100.00;63355.56;5012978;28;20155;-79
2023/09/21 10:17:14;;;;;;;2.38;1.30;;;;;;;-141.50;100.00;63355.56;5029418;28;20060;-80
2023/09/21 10:19:43;;;;;;;2.92;1.15;;;;;;;-141.50;100.00;63355.56;5029354;28;20096;-80
2023/09/21 10:22:25;;;;;;;1.70;1.15;;;;;;;-141.50;100.00;63355.56;5030417;28;20052;-80
2023/09/21 10:24:58;;;;;;;2.55;1.40;;;;;;;-141.50;100.00;63355.56;5022192;28;20037;-80
2023/09/21 10:27:27;;;;;;;2.13;1.40;;;;;;;-141.50;100.00;63355.56;5029538;28;20045;-79
2023/09/21 10:30:08;;;;;;;4.97;1.33;;;;;;;-141.50;100.00;63355.56;5026800;28;20415;-80
2023/09/21 10:32:42;;;;;;;2.33;1.30;;;;;;;-141.50;100.00;63355.56;5026065;28;20045;-79
2023/09/21 10:35:12;;;;;;;2.13;1.30;;;;;;;-141.50;100.00;63355.56;5027740;28;20049;-80
2023/09/21 10:37:40;;;;;;;3.17;1.40;;;;;;;-141.50;100.00;63355.56;5027246;28;20049;-80
2023/09/21 10:40:08;;;;;;;3.75;1.25;;;;;;;-141.50;100.00;63355.56;5025952;28;20053;-79
2023/09/21 10:42:39;;;;;;;2.28;1.30;;;;;;;-141.50;100.00;63355.56;5022790;28;20138;-79
2023/09/21 10:45:09;;;;;;;2.08;1.42;;;;;;;-141.50;100.00;63355.56;5027647;28;20150;-79
2023/09/21 10:47:38;;;;;;;2.80;1.40;;;;;;;-141.50;100.00;63355.56;5025888;28;21817;-78
2023/09/21 10:50:06;;;;;;;3.90;1.65;;;;;;;-141.50;100.00;63355.56;5042384;28;20463;-79
2023/09/21 10:52:34;;;;;;;2.80;1.50;;;;;;;-141.50;100.00;63355.56;5026565;28;20125;-79
2023/09/21 10:55:01;;;;;;;1.52;1.05;;;;;;;-141.50;100.00;63355.56;5027694;28;20049;-80
2023/09/21 10:57:29;;;;;;;2.67;1.30;;;;;;;-141.50;100.00;63355.56;5027987;28;20060;-79
2023/09/21 11:00:07;;;;;;;2.28;1.42;;;;;;;-141.50;100.00;63355.56;5007657;28;20041;-80
2023/09/21 11:02:40;;;;;;;3.78;1.23;;;;;;;-141.50;100.00;63355.56;5040280;28;20497;-79
2023/09/21 11:05:08;;;;;;;1.98;1.08;;;;;;;-141.50;100.00;63355.56;5026277;28;20543;-80
2023/09/21 11:07:36;;;;;;;1.83;1.30;;;;;;;-141.50;100.00;63355.56;5027313;28;20037;-78
2023/09/21 11:10:06;;;;;;;2.28;1.30;;;;;;;-141.50;100.00;63355.56;5026455;28;21193;-80
2023/09/21 11:12:34;;;;;;;3.97;1.20;;;;;;;-141.50;100.00;63355.56;5027183;28;20052;-78
2023/09/21 11:15:03;;;;;;;1.42;1.10;;;;;;;-141.50;100.00;63355.56;5021945;28;20045;-78
2023/09/21 11:17:30;;;;;;;2.05;1.08;;;;;;;-141.50;100.00;63355.56;5040497;28;20068;-80
2023/09/21 11:19:57;;;;;;;3.13;1.35;;;;;;;-141.50;100.00;63355.56;5025410;28;20044;-78